Date,TemperatureHighF,TemperatureAvgF,TemperatureLowF,DewpointHighF,DewpointAvgF,DewpointLowF,HumidityHigh,HumidityAvg,HumidityLow,PressureMaxIn,PressureMinIn,WindSpeedMaxMPH,WindSpeedAvgMPH,GustSpeedMaxMPH,PrecipitationSumIn
2013-5-1,30.3,27.1,23.6,26.0,22.8,20.0,89,84,74,30.68,29.96,16,7,19,0.00
2013-5-2,34.8,29.2,24.7,27.0,23.7,21.0,89,80,66,30.77,30.61,10,4,12,0.00
2013-5-3,49.2,36.2,21.8,35.0,27.0,20.0,91,71,50,30.61,30.36,8,3,11,0.00
2013-5-4,55.7,42.3,25.5,36.0,28.0,22.0,90,60,37,30.39,30.30,14,3,16,0.00
2013-5-5,64.9,49.3,34.4,37.0,33.2,23.0,83,57,32,30.32,30.06,9,3,11,0.00
2013-5-6,77.7,62.3,43.6,44.0,38.4,36.0,77,45,23,30.06,29.90,14,7,23,0.00
2013-5-7,75.4,64.8,51.2,49.0,43.2,39.0,64,47,29,29.93,29.82,17,8,25,0.00
2013-5-8,52.1,44.8,35.1,40.0,31.3,24.0,75,60,41,30.28,29.89,27,16,31,0.00
2013-5-9,54.9,42.6,28.3,27.0,23.7,20.0,80,51,29,30.38,30.22,15,6,19,0.00
2013-5-10,51.8,43.6,32.9,43.0,30.2,21.0,85,60,44,30.22,29.94,31,9,34,0.06
2013-5-11,44.5,37.2,27.2,32.0,24.2,15.0,79,61,40,30.33,30.15,24,11,26,0.00
2013-5-12,58.7,41.9,19.9,25.0,20.4,14.0,85,47,23,30.29,29.97,13,3,22,0.00
2013-5-13,78.0,60.9,46.2,45.0,33.8,24.0,48,37,26,29.96,29.51,27,11,35,0.00
2013-5-14,77.0,65.1,53.7,59.0,46.5,37.0,75,53,35,29.64,29.25,25,11,36,0.07
2013-5-15,68.7,57.0,40.4,46.0,40.0,32.0,90,57,34,29.89,29.65,18,5,23,0.00
2013-5-16,71.3,57.3,40.2,39.0,33.8,31.0,76,45,26,29.99,29.89,9,2,13,0.00
2013-5-17,66.0,55.3,40.3,52.0,44.3,34.0,80,67,48,30.02,29.92,11,4,15,0.06
2013-5-18,67.1,57.7,53.3,54.0,48.1,43.0,91,72,50,29.92,29.85,10,3,11,0.11
2013-5-19,64.6,56.1,48.6,55.0,51.7,46.0,91,85,64,29.91,29.83,21,7,23,0.24
2013-5-20,57.7,54.0,48.4,52.0,47.9,40.0,88,80,68,29.93,29.81,27,13,32,0.21
2013-5-21,71.3,57.8,46.0,40.0,32.4,22.0,67,43,16,29.98,29.91,19,8,29,0.01
2013-5-22,67.1,55.9,39.0,49.0,39.6,28.0,85,56,41,30.22,29.98,25,8,29,0.00
2013-5-23,63.5,50.9,33.9,34.0,30.4,24.0,76,48,24,30.41,30.24,11,3,25,0.00
2013-5-24,70.5,56.1,35.1,46.0,34.7,28.0,82,49,27,30.31,30.13,12,4,21,0.04
2013-5-25,65.4,57.4,50.8,51.0,47.9,45.0,85,71,57,30.20,30.13,20,6,20,0.00
2013-5-26,72.8,63.7,52.9,50.0,46.4,42.0,79,56,34,30.17,30.01,19,7,24,0.00
2013-5-27,75.6,63.5,50.1,54.0,48.4,45.0,84,60,36,30.01,29.73,15,5,20,0.00
2013-5-28,65.9,61.4,59.0,55.0,53.4,51.0,86,75,66,29.73,29.62,12,8,20,0.03
2013-5-29,66.1,62.5,53.8,58.0,56.0,50.0,88,79,74,29.73,29.67,11,7,15,0.00
2013-5-30,60.8,56.7,51.9,56.0,53.6,49.0,91,89,85,29.72,29.59,18,8,24,0.74
2013-5-31,54.4,51.7,47.5,51.0,48.7,43.0,91,89,82,29.83,29.52,18,9,26,0.71